sensor_id;sensor_type;location;lat;lon;timestamp;P1;durP1;ratioP1;P2;durP2;ratioP2
64710;SDS011;51139;45.626;6.850;2023-07-16T00:00:50;6.75;;;4.50;;
64710;SDS011;51139;45.626;6.850;2023-07-16T00:03:16;9.02;;;3.92;;
64710;SDS011;51139;45.626;6.850;2023-07-16T00:05:41;7.03;;;3.72;;
64710;SDS011;51139;45.626;6.850;2023-07-16T00:08:07;7.72;;;4.22;;
64710;SDS011;51139;45.626;6.850;2023-07-16T00:10:36;6.03;;;3.75;;
64710;SDS011;51139;45.626;6.850;2023-07-16T00:13:02;6.38;;;4.00;;
64710;SDS011;51139;45.626;6.850;2023-07-16T00:15:28;7.68;;;4.35;;
64710;SDS011;51139;45.626;6.850;2023-07-16T00:17:54;6.55;;;4.05;;
64710;SDS011;51139;45.626;6.850;2023-07-16T00:20:20;5.72;;;3.90;;
64710;SDS011;51139;45.626;6.850;2023-07-16T00:22:45;6.78;;;3.90;;
64710;SDS011;51139;45.626;6.850;2023-07-16T00:25:11;7.03;;;4.00;;
64710;SDS011;51139;45.626;6.850;2023-07-16T00:27:36;6.35;;;3.97;;
64710;SDS011;51139;45.626;6.850;2023-07-16T00:30:02;7.40;;;3.95;;
64710;SDS011;51139;45.626;6.850;2023-07-16T00:32:28;7.50;;;4.10;;
64710;SDS011;51139;45.626;6.850;2023-07-16T00:34:53;8.10;;;4.50;;
64710;SDS011;51139;45.626;6.850;2023-07-16T00:37:19;8.45;;;4.80;;
64710;SDS011;51139;45.626;6.850;2023-07-16T00:39:44;6.82;;;4.30;;
64710;SDS011;51139;45.626;6.850;2023-07-16T00:42:09;10.15;;;4.43;;
64710;SDS011;51139;45.626;6.850;2023-07-16T00:44:35;5.57;;;4.32;;
64710;SDS011;51139;45.626;6.850;2023-07-16T00:47:00;6.82;;;4.05;;
64710;SDS011;51139;45.626;6.850;2023-07-16T00:49:26;7.50;;;4.18;;
64710;SDS011;51139;45.626;6.850;2023-07-16T00:51:54;7.78;;;4.57;;
64710;SDS011;51139;45.626;6.850;2023-07-16T00:54:19;9.23;;;4.55;;
64710;SDS011;51139;45.626;6.850;2023-07-16T00:56:45;6.53;;;4.00;;
64710;SDS011;51139;45.626;6.850;2023-07-16T00:59:10;5.28;;;4.00;;
64710;SDS011;51139;45.626;6.850;2023-07-16T01:01:36;7.07;;;4.18;;
64710;SDS011;51139;45.626;6.850;2023-07-16T01:04:03;6.57;;;4.38;;
64710;SDS011;51139;45.626;6.850;2023-07-16T01:06:33;6.63;;;4.25;;
64710;SDS011;51139;45.626;6.850;2023-07-16T01:09:03;7.57;;;4.45;;
64710;SDS011;51139;45.626;6.850;2023-07-16T01:11:32;6.18;;;4.53;;
64710;SDS011;51139;45.626;6.850;2023-07-16T01:14:00;7.72;;;4.57;;
64710;SDS011;51139;45.626;6.850;2023-07-16T01:16:26;6.82;;;4.97;;
64710;SDS011;51139;45.626;6.850;2023-07-16T01:18:52;8.23;;;5.35;;
64710;SDS011;51139;45.626;6.850;2023-07-16T01:21:18;7.50;;;4.53;;
64710;SDS011;51139;45.626;6.850;2023-07-16T01:26:32;6.78;;;4.63;;
64710;SDS011;51139;45.626;6.850;2023-07-16T01:31:46;8.15;;;4.90;;
64710;SDS011;51139;45.626;6.850;2023-07-16T01:34:14;8.30;;;4.60;;
64710;SDS011;51139;45.626;6.850;2023-07-16T01:36:40;8.18;;;4.70;;
64710;SDS011;51139;45.626;6.850;2023-07-16T01:39:07;8.98;;;5.05;;
64710;SDS011;51139;45.626;6.850;2023-07-16T01:41:32;9.50;;;4.72;;
64710;SDS011;51139;45.626;6.850;2023-07-16T01:43:57;7.88;;;5.20;;
64710;SDS011;51139;45.626;6.850;2023-07-16T01:46:24;11.48;;;4.97;;
64710;SDS011;51139;45.626;6.850;2023-07-16T01:48:49;8.30;;;5.05;;
64710;SDS011;51139;45.626;6.850;2023-07-16T01:51:15;7.85;;;4.82;;
64710;SDS011;51139;45.626;6.850;2023-07-16T01:53:40;8.45;;;5.25;;
64710;SDS011;51139;45.626;6.850;2023-07-16T01:56:06;8.45;;;5.07;;
64710;SDS011;51139;45.626;6.850;2023-07-16T01:58:31;7.30;;;4.90;;
64710;SDS011;51139;45.626;6.850;2023-07-16T02:00:57;8.88;;;5.10;;
64710;SDS011;51139;45.626;6.850;2023-07-16T02:03:22;9.02;;;4.93;;
64710;SDS011;51139;45.626;6.850;2023-07-16T02:05:48;8.95;;;4.70;;
64710;SDS011;51139;45.626;6.850;2023-07-16T02:08:13;9.32;;;4.88;;
64710;SDS011;51139;45.626;6.850;2023-07-16T02:10:39;6.93;;;4.80;;
64710;SDS011;51139;45.626;6.850;2023-07-16T02:13:04;10.88;;;4.95;;
64710;SDS011;51139;45.626;6.850;2023-07-16T02:15:29;7.85;;;5.10;;
64710;SDS011;51139;45.626;6.850;2023-07-16T02:17:55;8.00;;;5.20;;
64710;SDS011;51139;45.626;6.850;2023-07-16T02:20:20;7.90;;;5.00;;
64710;SDS011;51139;45.626;6.850;2023-07-16T02:22:45;8.50;;;4.97;;
64710;SDS011;51139;45.626;6.850;2023-07-16T02:25:11;6.22;;;5.10;;
64710;SDS011;51139;45.626;6.850;2023-07-16T02:27:36;8.18;;;5.03;;
64710;SDS011;51139;45.626;6.850;2023-07-16T02:30:02;10.73;;;4.93;;
64710;SDS011;51139;45.626;6.850;2023-07-16T02:32:27;9.45;;;5.30;;
64710;SDS011;51139;45.626;6.850;2023-07-16T02:34:52;6.68;;;4.45;;
64710;SDS011;51139;45.626;6.850;2023-07-16T02:37:18;10.60;;;4.85;;
64710;SDS011;51139;45.626;6.850;2023-07-16T02:39:44;6.70;;;4.53;;
64710;SDS011;51139;45.626;6.850;2023-07-16T02:42:10;8.32;;;4.55;;
64710;SDS011;51139;45.626;6.850;2023-07-16T02:44:35;11.63;;;5.40;;
64710;SDS011;51139;45.626;6.850;2023-07-16T02:47:06;7.20;;;4.85;;
64710;SDS011;51139;45.626;6.850;2023-07-16T02:49:32;8.45;;;5.18;;
64710;SDS011;51139;45.626;6.850;2023-07-16T02:51:57;7.68;;;4.60;;
64710;SDS011;51139;45.626;6.850;2023-07-16T02:54:23;6.75;;;4.80;;
64710;SDS011;51139;45.626;6.850;2023-07-16T02:56:48;8.00;;;5.18;;
64710;SDS011;51139;45.626;6.850;2023-07-16T02:59:14;10.15;;;4.97;;
64710;SDS011;51139;45.626;6.850;2023-07-16T03:01:39;7.15;;;5.18;;
64710;SDS011;51139;45.626;6.850;2023-07-16T03:04:04;8.55;;;4.95;;
64710;SDS011;51139;45.626;6.850;2023-07-16T03:06:30;8.73;;;5.03;;
64710;SDS011;51139;45.626;6.850;2023-07-16T03:08:55;8.48;;;4.70;;
64710;SDS011;51139;45.626;6.850;2023-07-16T03:11:20;7.45;;;5.03;;
64710;SDS011;51139;45.626;6.850;2023-07-16T03:13:46;7.57;;;4.93;;
64710;SDS011;51139;45.626;6.850;2023-07-16T03:16:11;8.45;;;5.10;;
64710;SDS011;51139;45.626;6.850;2023-07-16T03:18:36;8.60;;;5.35;;
64710;SDS011;51139;45.626;6.850;2023-07-16T03:21:02;9.23;;;5.22;;
64710;SDS011;51139;45.626;6.850;2023-07-16T03:23:27;11.60;;;5.40;;
64710;SDS011;51139;45.626;6.850;2023-07-16T03:25:53;8.85;;;4.70;;
64710;SDS011;51139;45.626;6.850;2023-07-16T03:28:18;7.47;;;4.65;;
64710;SDS011;51139;45.626;6.850;2023-07-16T03:30:47;8.98;;;5.30;;
64710;SDS011;51139;45.626;6.850;2023-07-16T03:33:13;10.03;;;5.23;;
64710;SDS011;51139;45.626;6.850;2023-07-16T03:35:42;8.07;;;4.97;;
64710;SDS011;51139;45.626;6.850;2023-07-16T03:38:08;6.72;;;4.80;;
64710;SDS011;51139;45.626;6.850;2023-07-16T03:40:34;8.95;;;5.38;;
64710;SDS011;51139;45.626;6.850;2023-07-16T03:43:00;8.55;;;5.38;;
64710;SDS011;51139;45.626;6.850;2023-07-16T03:45:25;6.43;;;5.00;;
64710;SDS011;51139;45.626;6.850;2023-07-16T03:47:51;8.63;;;5.82;;
64710;SDS011;51139;45.626;6.850;2023-07-16T03:50:16;8.10;;;5.20;;
64710;SDS011;51139;45.626;6.850;2023-07-16T03:52:41;8.50;;;5.15;;
64710;SDS011;51139;45.626;6.850;2023-07-16T03:55:07;11.68;;;5.13;;
64710;SDS011;51139;45.626;6.850;2023-07-16T03:57:32;10.07;;;5.18;;
64710;SDS011;51139;45.626;6.850;2023-07-16T03:59:58;8.65;;;5.63;;
64710;SDS011;51139;45.626;6.850;2023-07-16T04:02:24;8.02;;;5.32;;
64710;SDS011;51139;45.626;6.850;2023-07-16T04:04:49;9.07;;;5.13;;
64710;SDS011;51139;45.626;6.850;2023-07-16T04:07:15;8.75;;;5.80;;
64710;SDS011;51139;45.626;6.850;2023-07-16T04:09:40;8.65;;;6.20;;
64710;SDS011;51139;45.626;6.850;2023-07-16T04:12:06;8.85;;;5.50;;
64710;SDS011;51139;45.626;6.850;2023-07-16T04:14:32;9.43;;;5.57;;
64710;SDS011;51139;45.626;6.850;2023-07-16T04:16:57;10.70;;;5.35;;
64710;SDS011;51139;45.626;6.850;2023-07-16T04:19:23;10.63;;;5.93;;
64710;SDS011;51139;45.626;6.850;2023-07-16T04:21:48;9.30;;;5.70;;
64710;SDS011;51139;45.626;6.850;2023-07-16T04:24:14;8.65;;;5.95;;
64710;SDS011;51139;45.626;6.850;2023-07-16T04:26:39;13.82;;;6.45;;
64710;SDS011;51139;45.626;6.850;2023-07-16T04:29:04;9.77;;;6.13;;
64710;SDS011;51139;45.626;6.850;2023-07-16T04:31:30;11.00;;;6.07;;
64710;SDS011;51139;45.626;6.850;2023-07-16T04:33:55;8.57;;;5.50;;
64710;SDS011;51139;45.626;6.850;2023-07-16T04:36:20;10.00;;;6.60;;
64710;SDS011;51139;45.626;6.850;2023-07-16T04:38:46;10.50;;;5.70;;
64710;SDS011;51139;45.626;6.850;2023-07-16T04:41:11;9.65;;;6.30;;
64710;SDS011;51139;45.626;6.850;2023-07-16T04:43:38;9.95;;;5.68;;
64710;SDS011;51139;45.626;6.850;2023-07-16T04:46:03;9.20;;;5.60;;
64710;SDS011;51139;45.626;6.850;2023-07-16T04:48:28;8.50;;;5.57;;
64710;SDS011;51139;45.626;6.850;2023-07-16T04:50:54;8.63;;;5.50;;
64710;SDS011;51139;45.626;6.850;2023-07-16T04:53:19;7.75;;;5.18;;
64710;SDS011;51139;45.626;6.850;2023-07-16T04:55:44;13.68;;;6.25;;
64710;SDS011;51139;45.626;6.850;2023-07-16T04:58:13;11.00;;;5.82;;
64710;SDS011;51139;45.626;6.850;2023-07-16T05:00:39;9.52;;;6.18;;
64710;SDS011;51139;45.626;6.850;2023-07-16T05:03:05;8.65;;;6.20;;
64710;SDS011;51139;45.626;6.850;2023-07-16T05:05:30;9.32;;;5.97;;
64710;SDS011;51139;45.626;6.850;2023-07-16T05:07:56;10.65;;;6.97;;
64710;SDS011;51139;45.626;6.850;2023-07-16T05:10:21;13.27;;;6.53;;
64710;SDS011;51139;45.626;6.850;2023-07-16T05:12:46;11.35;;;6.32;;
64710;SDS011;51139;45.626;6.850;2023-07-16T05:15:12;10.10;;;6.53;;
64710;SDS011;51139;45.626;6.850;2023-07-16T05:17:37;10.57;;;7.35;;
64710;SDS011;51139;45.626;6.850;2023-07-16T05:20:03;10.68;;;7.22;;
64710;SDS011;51139;45.626;6.850;2023-07-16T05:22:32;9.23;;;7.15;;
64710;SDS011;51139;45.626;6.850;2023-07-16T05:24:57;12.02;;;7.03;;
64710;SDS011;51139;45.626;6.850;2023-07-16T05:27:23;11.68;;;7.55;;
64710;SDS011;51139;45.626;6.850;2023-07-16T05:29:48;10.15;;;6.57;;
64710;SDS011;51139;45.626;6.850;2023-07-16T05:32:13;10.60;;;6.85;;
64710;SDS011;51139;45.626;6.850;2023-07-16T05:34:39;11.15;;;6.97;;
64710;SDS011;51139;45.626;6.850;2023-07-16T05:37:04;10.80;;;6.85;;
64710;SDS011;51139;45.626;6.850;2023-07-16T05:39:30;10.20;;;6.72;;
64710;SDS011;51139;45.626;6.850;2023-07-16T05:41:55;10.82;;;6.80;;
64710;SDS011;51139;45.626;6.850;2023-07-16T05:44:21;9.90;;;6.47;;
64710;SDS011;51139;45.626;6.850;2023-07-16T05:46:46;11.10;;;6.85;;
64710;SDS011;51139;45.626;6.850;2023-07-16T05:49:11;9.35;;;7.20;;
64710;SDS011;51139;45.626;6.850;2023-07-16T05:51:37;13.30;;;6.95;;
64710;SDS011;51139;45.626;6.850;2023-07-16T05:54:02;11.15;;;7.60;;
64710;SDS011;51139;45.626;6.850;2023-07-16T05:56:28;12.75;;;7.18;;
64710;SDS011;51139;45.626;6.850;2023-07-16T05:58:53;11.23;;;7.25;;
64710;SDS011;51139;45.626;6.850;2023-07-16T06:01:18;11.07;;;7.25;;
64710;SDS011;51139;45.626;6.850;2023-07-16T06:03:44;10.25;;;7.40;;
64710;SDS011;51139;45.626;6.850;2023-07-16T06:06:09;11.52;;;7.90;;
64710;SDS011;51139;45.626;6.850;2023-07-16T06:08:34;12.77;;;8.60;;
64710;SDS011;51139;45.626;6.850;2023-07-16T06:11:00;9.75;;;7.07;;
64710;SDS011;51139;45.626;6.850;2023-07-16T06:13:25;12.90;;;7.15;;
64710;SDS011;51139;45.626;6.850;2023-07-16T06:15:51;11.15;;;7.90;;
64710;SDS011;51139;45.626;6.850;2023-07-16T06:18:16;9.63;;;7.95;;
64710;SDS011;51139;45.626;6.850;2023-07-16T06:20:45;10.30;;;7.63;;
64710;SDS011;51139;45.626;6.850;2023-07-16T06:23:14;10.25;;;7.65;;
64710;SDS011;51139;45.626;6.850;2023-07-16T06:25:41;11.98;;;6.97;;
64710;SDS011;51139;45.626;6.850;2023-07-16T06:28:11;8.15;;;6.60;;
64710;SDS011;51139;45.626;6.850;2023-07-16T06:30:37;10.82;;;7.00;;
64710;SDS011;51139;45.626;6.850;2023-07-16T06:33:02;10.90;;;7.15;;
64710;SDS011;51139;45.626;6.850;2023-07-16T06:35:28;7.72;;;6.38;;
64710;SDS011;51139;45.626;6.850;2023-07-16T06:37:53;8.30;;;6.25;;
64710;SDS011;51139;45.626;6.850;2023-07-16T06:40:18;14.13;;;7.40;;
64710;SDS011;51139;45.626;6.850;2023-07-16T06:42:44;12.63;;;7.20;;
64710;SDS011;51139;45.626;6.850;2023-07-16T06:45:09;10.68;;;6.80;;
64710;SDS011;51139;45.626;6.850;2023-07-16T06:47:35;9.48;;;6.20;;
64710;SDS011;51139;45.626;6.850;2023-07-16T06:50:00;11.80;;;7.03;;
64710;SDS011;51139;45.626;6.850;2023-07-16T06:52:26;11.40;;;6.75;;
64710;SDS011;51139;45.626;6.850;2023-07-16T06:54:52;10.18;;;6.65;;
64710;SDS011;51139;45.626;6.850;2023-07-16T06:57:19;11.90;;;6.90;;
64710;SDS011;51139;45.626;6.850;2023-07-16T06:59:44;11.27;;;7.45;;
64710;SDS011;51139;45.626;6.850;2023-07-16T07:02:10;11.68;;;6.95;;
64710;SDS011;51139;45.626;6.850;2023-07-16T07:04:35;11.15;;;7.32;;
64710;SDS011;51139;45.626;6.850;2023-07-16T07:07:00;12.05;;;7.55;;
64710;SDS011;51139;45.626;6.850;2023-07-16T07:09:26;12.55;;;7.60;;
64710;SDS011;51139;45.626;6.850;2023-07-16T07:11:51;9.98;;;7.55;;
64710;SDS011;51139;45.626;6.850;2023-07-16T07:14:16;11.23;;;6.88;;
64710;SDS011;51139;45.626;6.850;2023-07-16T07:16:42;11.40;;;6.95;;
64710;SDS011;51139;45.626;6.850;2023-07-16T07:19:08;10.40;;;7.45;;
64710;SDS011;51139;45.626;6.850;2023-07-16T07:21:33;10.27;;;7.50;;
64710;SDS011;51139;45.626;6.850;2023-07-16T07:23:58;12.18;;;7.22;;
64710;SDS011;51139;45.626;6.850;2023-07-16T07:26:24;13.18;;;8.02;;
64710;SDS011;51139;45.626;6.850;2023-07-16T07:28:50;304.45;;;24.27;;
64710;SDS011;51139;45.626;6.850;2023-07-16T07:31:15;41.28;;;11.18;;
64710;SDS011;51139;45.626;6.850;2023-07-16T07:33:41;45.30;;;12.25;;
64710;SDS011;51139;45.626;6.850;2023-07-16T07:36:06;15.20;;;10.30;;
64710;SDS011;51139;45.626;6.850;2023-07-16T07:38:31;12.48;;;8.40;;
64710;SDS011;51139;45.626;6.850;2023-07-16T07:40:57;11.95;;;9.50;;
64710;SDS011;51139;45.626;6.850;2023-07-16T07:43:22;14.13;;;9.55;;
64710;SDS011;51139;45.626;6.850;2023-07-16T07:45:47;12.05;;;8.50;;
64710;SDS011;51139;45.626;6.850;2023-07-16T07:48:13;10.35;;;8.60;;
64710;SDS011;51139;45.626;6.850;2023-07-16T07:50:38;11.48;;;8.25;;
64710;SDS011;51139;45.626;6.850;2023-07-16T07:53:04;10.35;;;7.43;;
64710;SDS011;51139;45.626;6.850;2023-07-16T07:55:30;68.63;;;14.20;;
64710;SDS011;51139;45.626;6.850;2023-07-16T07:57:56;10.77;;;8.30;;
64710;SDS011;51139;45.626;6.850;2023-07-16T08:00:21;10.32;;;8.50;;
64710;SDS011;51139;45.626;6.850;2023-07-16T08:02:46;10.82;;;7.13;;
64710;SDS011;51139;45.626;6.850;2023-07-16T08:05:12;11.98;;;7.18;;
64710;SDS011;51139;45.626;6.850;2023-07-16T08:07:37;11.73;;;7.63;;
64710;SDS011;51139;45.626;6.850;2023-07-16T08:10:03;10.43;;;6.43;;
64710;SDS011;51139;45.626;6.850;2023-07-16T08:12:29;10.55;;;7.28;;
64710;SDS011;51139;45.626;6.850;2023-07-16T08:14:55;9.77;;;6.78;;
64710;SDS011;51139;45.626;6.850;2023-07-16T08:17:21;10.00;;;6.65;;
64710;SDS011;51139;45.626;6.850;2023-07-16T08:19:46;10.35;;;6.60;;
64710;SDS011;51139;45.626;6.850;2023-07-16T08:22:11;11.38;;;7.22;;
64710;SDS011;51139;45.626;6.850;2023-07-16T08:24:37;13.63;;;6.93;;
64710;SDS011;51139;45.626;6.850;2023-07-16T08:27:02;9.90;;;6.60;;
64710;SDS011;51139;45.626;6.850;2023-07-16T08:29:28;11.13;;;7.15;;
64710;SDS011;51139;45.626;6.850;2023-07-16T08:31:53;11.15;;;6.90;;
64710;SDS011;51139;45.626;6.850;2023-07-16T08:34:19;9.60;;;7.03;;
64710;SDS011;51139;45.626;6.850;2023-07-16T08:36:44;19.45;;;7.25;;
64710;SDS011;51139;45.626;6.850;2023-07-16T08:39:09;9.75;;;6.38;;
64710;SDS011;51139;45.626;6.850;2023-07-16T08:41:34;8.63;;;6.43;;
64710;SDS011;51139;45.626;6.850;2023-07-16T08:44:00;12.32;;;6.57;;
64710;SDS011;51139;45.626;6.850;2023-07-16T08:46:26;11.00;;;6.57;;
64710;SDS011;51139;45.626;6.850;2023-07-16T08:48:51;14.07;;;7.97;;
64710;SDS011;51139;45.626;6.850;2023-07-16T08:51:18;11.30;;;7.15;;
64710;SDS011;51139;45.626;6.850;2023-07-16T08:53:46;9.60;;;7.35;;
64710;SDS011;51139;45.626;6.850;2023-07-16T08:56:12;9.25;;;7.13;;
64710;SDS011;51139;45.626;6.850;2023-07-16T08:58:37;10.85;;;6.90;;
64710;SDS011;51139;45.626;6.850;2023-07-16T09:01:03;11.88;;;7.55;;
64710;SDS011;51139;45.626;6.850;2023-07-16T09:03:30;10.73;;;7.20;;
64710;SDS011;51139;45.626;6.850;2023-07-16T09:05:55;10.35;;;6.88;;
64710;SDS011;51139;45.626;6.850;2023-07-16T09:08:21;7.85;;;7.03;;
64710;SDS011;51139;45.626;6.850;2023-07-16T09:10:53;10.15;;;6.90;;
64710;SDS011;51139;45.626;6.850;2023-07-16T09:13:20;12.10;;;7.20;;
64710;SDS011;51139;45.626;6.850;2023-07-16T09:15:50;10.25;;;6.75;;
64710;SDS011;51139;45.626;6.850;2023-07-16T09:20:45;9.48;;;6.90;;
64710;SDS011;51139;45.626;6.850;2023-07-16T09:23:11;8.65;;;6.88;;
64710;SDS011;51139;45.626;6.850;2023-07-16T09:25:36;10.60;;;6.85;;
64710;SDS011;51139;45.626;6.850;2023-07-16T09:28:04;10.75;;;7.47;;
64710;SDS011;51139;45.626;6.850;2023-07-16T09:30:31;10.48;;;6.40;;
64710;SDS011;51139;45.626;6.850;2023-07-16T09:32:58;8.70;;;6.22;;
64710;SDS011;51139;45.626;6.850;2023-07-16T09:35:28;9.50;;;6.95;;
64710;SDS011;51139;45.626;6.850;2023-07-16T09:37:54;9.82;;;6.53;;
64710;SDS011;51139;45.626;6.850;2023-07-16T09:40:19;10.13;;;7.28;;
64710;SDS011;51139;45.626;6.850;2023-07-16T09:42:44;10.10;;;7.13;;
64710;SDS011;51139;45.626;6.850;2023-07-16T09:45:17;9.77;;;7.47;;
64710;SDS011;51139;45.626;6.850;2023-07-16T09:47:43;8.95;;;6.63;;
64710;SDS011;51139;45.626;6.850;2023-07-16T09:50:09;9.02;;;7.00;;
64710;SDS011;51139;45.626;6.850;2023-07-16T09:52:36;10.32;;;6.88;;
64710;SDS011;51139;45.626;6.850;2023-07-16T09:55:02;8.13;;;6.00;;
64710;SDS011;51139;45.626;6.850;2023-07-16T09:57:30;10.80;;;6.80;;
64710;SDS011;51139;45.626;6.850;2023-07-16T10:00:00;7.85;;;5.93;;
64710;SDS011;51139;45.626;6.850;2023-07-16T10:02:30;8.02;;;6.47;;
64710;SDS011;51139;45.626;6.850;2023-07-16T10:04:58;10.65;;;6.28;;
64710;SDS011;51139;45.626;6.850;2023-07-16T10:07:24;9.63;;;6.45;;
64710;SDS011;51139;45.626;6.850;2023-07-16T10:12:23;9.30;;;6.45;;
64710;SDS011;51139;45.626;6.850;2023-07-16T10:14:51;8.60;;;5.95;;
64710;SDS011;51139;45.626;6.850;2023-07-16T10:17:21;8.02;;;6.35;;
64710;SDS011;51139;45.626;6.850;2023-07-16T10:19:54;8.95;;;5.53;;
64710;SDS011;51139;45.626;6.850;2023-07-16T10:22:30;6.80;;;6.10;;
64710;SDS011;51139;45.626;6.850;2023-07-16T10:24:56;7.13;;;5.85;;
64710;SDS011;51139;45.626;6.850;2023-07-16T10:27:28;8.30;;;5.45;;
64710;SDS011;51139;45.626;6.850;2023-07-16T10:29:54;8.27;;;5.90;;
64710;SDS011;51139;45.626;6.850;2023-07-16T10:32:20;6.75;;;4.72;;
64710;SDS011;51139;45.626;6.850;2023-07-16T10:34:45;7.75;;;5.13;;
64710;SDS011;51139;45.626;6.850;2023-07-16T10:37:11;6.32;;;4.78;;
64710;SDS011;51139;45.626;6.850;2023-07-16T10:39:44;9.18;;;5.60;;
64710;SDS011;51139;45.626;6.850;2023-07-16T10:42:11;7.45;;;5.70;;
64710;SDS011;51139;45.626;6.850;2023-07-16T10:44:36;7.32;;;5.38;;
64710;SDS011;51139;45.626;6.850;2023-07-16T10:47:02;8.93;;;5.75;;
64710;SDS011;51139;45.626;6.850;2023-07-16T10:49:27;9.40;;;5.65;;
64710;SDS011;51139;45.626;6.850;2023-07-16T10:51:53;9.40;;;6.20;;
64710;SDS011;51139;45.626;6.850;2023-07-16T10:54:19;8.13;;;5.60;;
64710;SDS011;51139;45.626;6.850;2023-07-16T10:56:45;6.88;;;5.32;;
64710;SDS011;51139;45.626;6.850;2023-07-16T10:59:13;6.93;;;4.30;;
64710;SDS011;51139;45.626;6.850;2023-07-16T11:01:38;6.88;;;5.45;;
64710;SDS011;51139;45.626;6.850;2023-07-16T11:04:07;7.00;;;4.80;;
64710;SDS011;51139;45.626;6.850;2023-07-16T11:06:33;7.90;;;4.03;;
64710;SDS011;51139;45.626;6.850;2023-07-16T11:09:10;5.47;;;3.38;;
64710;SDS011;51139;45.626;6.850;2023-07-16T11:11:36;5.57;;;3.17;;
64710;SDS011;51139;45.626;6.850;2023-07-16T11:14:05;6.47;;;3.30;;
64710;SDS011;51139;45.626;6.850;2023-07-16T11:16:34;5.75;;;2.80;;
64710;SDS011;51139;45.626;6.850;2023-07-16T11:19:03;7.90;;;3.78;;
64710;SDS011;51139;45.626;6.850;2023-07-16T11:21:30;5.78;;;3.00;;
64710;SDS011;51139;45.626;6.850;2023-07-16T11:23:56;4.82;;;3.67;;
64710;SDS011;51139;45.626;6.850;2023-07-16T11:26:32;8.48;;;4.90;;
64710;SDS011;51139;45.626;6.850;2023-07-16T11:28:57;6.75;;;3.80;;
64710;SDS011;51139;45.626;6.850;2023-07-16T11:31:23;5.25;;;4.30;;
64710;SDS011;51139;45.626;6.850;2023-07-16T11:33:48;9.07;;;4.80;;
64710;SDS011;51139;45.626;6.850;2023-07-16T11:36:13;5.25;;;3.20;;
64710;SDS011;51139;45.626;6.850;2023-07-16T11:38:41;7.53;;;4.78;;
64710;SDS011;51139;45.626;6.850;2023-07-16T11:41:06;8.65;;;5.00;;
64710;SDS011;51139;45.626;6.850;2023-07-16T11:43:35;5.65;;;3.45;;
64710;SDS011;51139;45.626;6.850;2023-07-16T11:46:01;4.10;;;3.22;;
64710;SDS011;51139;45.626;6.850;2023-07-16T11:48:27;6.28;;;4.30;;
64710;SDS011;51139;45.626;6.850;2023-07-16T11:50:53;6.15;;;3.60;;
64710;SDS011;51139;45.626;6.850;2023-07-16T11:53:18;4.70;;;2.90;;
64710;SDS011;51139;45.626;6.850;2023-07-16T11:55:43;7.22;;;4.28;;
64710;SDS011;51139;45.626;6.850;2023-07-16T11:58:09;8.57;;;4.20;;
64710;SDS011;51139;45.626;6.850;2023-07-16T12:00:34;4.22;;;2.97;;
64710;SDS011;51139;45.626;6.850;2023-07-16T12:02:59;5.13;;;2.83;;
64710;SDS011;51139;45.626;6.850;2023-07-16T12:05:25;6.00;;;2.90;;
64710;SDS011;51139;45.626;6.850;2023-07-16T12:07:52;4.18;;;2.40;;
64710;SDS011;51139;45.626;6.850;2023-07-16T12:10:18;4.80;;;3.05;;
64710;SDS011;51139;45.626;6.850;2023-07-16T12:12:44;5.95;;;2.72;;
64710;SDS011;51139;45.626;6.850;2023-07-16T12:15:09;6.38;;;3.30;;
64710;SDS011;51139;45.626;6.850;2023-07-16T12:17:35;7.40;;;3.05;;
64710;SDS011;51139;45.626;6.850;2023-07-16T12:20:01;5.32;;;2.78;;
64710;SDS011;51139;45.626;6.850;2023-07-16T12:22:28;4.97;;;2.42;;
64710;SDS011;51139;45.626;6.850;2023-07-16T12:24:54;4.38;;;2.58;;
64710;SDS011;51139;45.626;6.850;2023-07-16T12:27:20;4.93;;;2.88;;
64710;SDS011;51139;45.626;6.850;2023-07-16T12:29:46;4.82;;;3.00;;
64710;SDS011;51139;45.626;6.850;2023-07-16T12:32:12;5.40;;;3.20;;
64710;SDS011;51139;45.626;6.850;2023-07-16T12:34:39;5.38;;;3.33;;
64710;SDS011;51139;45.626;6.850;2023-07-16T12:37:04;6.40;;;3.22;;
64710;SDS011;51139;45.626;6.850;2023-07-16T12:39:30;4.13;;;3.05;;
64710;SDS011;51139;45.626;6.850;2023-07-16T12:41:55;6.43;;;3.53;;
64710;SDS011;51139;45.626;6.850;2023-07-16T12:44:20;4.53;;;2.60;;
64710;SDS011;51139;45.626;6.850;2023-07-16T12:46:46;6.03;;;2.97;;
64710;SDS011;51139;45.626;6.850;2023-07-16T12:49:11;5.78;;;2.67;;
64710;SDS011;51139;45.626;6.850;2023-07-16T12:51:37;3.63;;;2.63;;
64710;SDS011;51139;45.626;6.850;2023-07-16T12:54:02;6.75;;;2.83;;
64710;SDS011;51139;45.626;6.850;2023-07-16T12:56:27;5.47;;;2.67;;
64710;SDS011;51139;45.626;6.850;2023-07-16T12:58:53;5.00;;;2.78;;
64710;SDS011;51139;45.626;6.850;2023-07-16T13:01:18;5.25;;;2.47;;
64710;SDS011;51139;45.626;6.850;2023-07-16T13:03:44;3.83;;;2.35;;
64710;SDS011;51139;45.626;6.850;2023-07-16T13:06:09;5.85;;;2.88;;
64710;SDS011;51139;45.626;6.850;2023-07-16T13:08:34;4.40;;;2.40;;
64710;SDS011;51139;45.626;6.850;2023-07-16T13:11:00;5.63;;;3.10;;
64710;SDS011;51139;45.626;6.850;2023-07-16T13:13:25;5.20;;;2.90;;
64710;SDS011;51139;45.626;6.850;2023-07-16T13:15:51;4.07;;;2.60;;
64710;SDS011;51139;45.626;6.850;2023-07-16T13:18:16;8.02;;;2.80;;
64710;SDS011;51139;45.626;6.850;2023-07-16T13:20:43;5.40;;;2.70;;
64710;SDS011;51139;45.626;6.850;2023-07-16T13:23:08;6.85;;;2.75;;
64710;SDS011;51139;45.626;6.850;2023-07-16T13:25:34;3.90;;;2.80;;
64710;SDS011;51139;45.626;6.850;2023-07-16T13:28:00;5.32;;;2.60;;
64710;SDS011;51139;45.626;6.850;2023-07-16T13:30:26;4.53;;;2.55;;
64710;SDS011;51139;45.626;6.850;2023-07-16T13:32:51;5.57;;;2.90;;
64710;SDS011;51139;45.626;6.850;2023-07-16T13:35:20;4.45;;;2.60;;
64710;SDS011;51139;45.626;6.850;2023-07-16T13:37:45;4.97;;;2.78;;
64710;SDS011;51139;45.626;6.850;2023-07-16T13:40:11;4.07;;;2.60;;
64710;SDS011;51139;45.626;6.850;2023-07-16T13:42:37;4.75;;;3.03;;
64710;SDS011;51139;45.626;6.850;2023-07-16T13:45:02;6.40;;;3.53;;
64710;SDS011;51139;45.626;6.850;2023-07-16T13:47:28;5.40;;;2.72;;
64710;SDS011;51139;45.626;6.850;2023-07-16T13:49:53;6.10;;;2.75;;
64710;SDS011;51139;45.626;6.850;2023-07-16T13:52:19;5.72;;;3.20;;
64710;SDS011;51139;45.626;6.850;2023-07-16T13:54:44;4.25;;;3.10;;
64710;SDS011;51139;45.626;6.850;2023-07-16T13:57:09;5.20;;;3.03;;
64710;SDS011;51139;45.626;6.850;2023-07-16T13:59:35;6.50;;;2.92;;
64710;SDS011;51139;45.626;6.850;2023-07-16T14:02:00;3.67;;;2.75;;
64710;SDS011;51139;45.626;6.850;2023-07-16T14:04:27;5.13;;;2.70;;
64710;SDS011;51139;45.626;6.850;2023-07-16T14:06:53;6.50;;;2.53;;
64710;SDS011;51139;45.626;6.850;2023-07-16T14:09:20;4.57;;;2.95;;
64710;SDS011;51139;45.626;6.850;2023-07-16T14:11:45;4.80;;;3.00;;
64710;SDS011;51139;45.626;6.850;2023-07-16T14:14:13;4.97;;;2.80;;
64710;SDS011;51139;45.626;6.850;2023-07-16T14:16:39;3.70;;;2.80;;
64710;SDS011;51139;45.626;6.850;2023-07-16T14:19:04;4.72;;;3.00;;
64710;SDS011;51139;45.626;6.850;2023-07-16T14:21:29;7.53;;;3.25;;
64710;SDS011;51139;45.626;6.850;2023-07-16T14:23:55;4.95;;;2.63;;
64710;SDS011;51139;45.626;6.850;2023-07-16T14:26:21;4.18;;;2.90;;
64710;SDS011;51139;45.626;6.850;2023-07-16T14:28:46;5.00;;;2.72;;
64710;SDS011;51139;45.626;6.850;2023-07-16T14:31:11;6.68;;;3.10;;
64710;SDS011;51139;45.626;6.850;2023-07-16T14:33:37;4.75;;;3.08;;
64710;SDS011;51139;45.626;6.850;2023-07-16T14:36:03;7.03;;;2.60;;
64710;SDS011;51139;45.626;6.850;2023-07-16T14:38:28;5.10;;;2.83;;
64710;SDS011;51139;45.626;6.850;2023-07-16T14:40:54;8.65;;;2.70;;
64710;SDS011;51139;45.626;6.850;2023-07-16T14:43:19;5.30;;;2.92;;
64710;SDS011;51139;45.626;6.850;2023-07-16T14:45:45;4.85;;;2.88;;